Terminal Aerodrome Forecast
Issued by NWS

Home | Current Version | Previous Version | Text Only | Print | Product List | Glossary On
Versions: 1 2 3 4 5 6 7 8 9 10 11 12 13 14 15 16 17 18 19 20 21 22 23 24 25 26
000
FTUS45 KRIW 021700
TAFPNA
TAF
KPNA 021737Z 0218/0318 30006KT P6SM SCT050 BKN120
     FM022100 VRB05KT P6SM VCSH SCT025 OVC040
     FM030200 32006KT 4SM -SN OVC020
     FM031000 29005KT 2SM -SN SCT008 OVC015
     FM031500 24006KT 5SM -SN OVC025
      AMD LTD TO CLD VIS AND WIND=

USA.gov is the U.S. government's official web portal to all federal, state and local government web resources and services.